KJYL

Plantation Arpk Airport

Sylvania, Georgia, USA
METAR KJYL 212335Z AUTO 25003KT 10SM CLR 33/23 A2983 RMK AO2 T03260232
Observed Flight Rules
Jun-21 @ 23:35 UTC (23 minutes ago) Visual Flight Rules
Wind Visibility Clouds
250° at 3 knots 10 miles
  • Clear skies
Temperatures Readings
Current 33°C / 91°F
Dewpoint 23°C / 73°F
Humidity 56%
Altimeter 29.83" Hg
Pressure 1010 hPa
Elevation 57
METAR KJYL 212335Z AUTO 25003KT 10SM CLR 33/23 A2983 RMK AO2 T03260232
Observed Flight Rules
Jun-21 @ 23:35 UTC
(23 minutes ago)
VFR
Wind Visibility
250° at 3 knots 10 miles
Clouds
  • Clear skies
Temperature Dewpoint
33°C / 91°F 23°C / 73°F
Humidity Altimeter Pressure
56% 29.83" Hg 1010 hPa